Mudcat — WCY8255 — position and weather

sailwx.info

Track history (hours):
 
Tides and Currents Weather Stations Pressure Air Temp Water Temp Dewpoint Dewpoint Depression Visibility Wind Speed Wind Dir Waves Ship Positions

Mudcat

Owner: TAURUS MARINE, SAN FRANCISCO, CA. More information available from US FCC via Universal Licensing System and Coast Guard Vessel Documentation Center.

Last reported at 2015-Mar-20 18:12 UTC. Time now 2015-Mar-28 12:15 UTC.
Position N 47°39' W 122°20'.

Length 22 m; draft 2 m.

Type: Tug. MMSI: 366969750.

Date/timePositionNaut miles runAvg speedWind from/ knotsBaromVisibWave heightAir tempDewpointWater temp
2015-Mar-20 18:12N 47°39' W 122°20'0 0.0
2015-Mar-20 18:09N 47°39' W 122°20'2 3.3
2015-Mar-20 17:33N 47°40' W 122°23'0 4.4
2015-Mar-20 17:29N 47°40' W 122°23'0 0.4
2015-Mar-20 16:34N 47°40' W 122°24'0 0.0
2015-Mar-20 16:33N 47°40' W 122°24'3 2.7
2015-Mar-20 15:33N 47°37' W 122°24'1 7.9
2015-Mar-20 15:29N 47°37' W 122°23'3 3.2
2015-Mar-20 14:33N 47°34' W 122°21'0 0.0
2015-Mar-20 14:29N 47°34' W 122°21'  
2015-Mar-12 21:32N 47°34' W 122°21'0 0.0
2015-Mar-12 21:29N 47°34' W 122°21'3 3.7
2015-Mar-12 20:32N 47°31' W 122°18'0 0.2
2015-Mar-12 20:18N 47°31' W 122°18'3 3.8
2015-Mar-12 19:34N 47°34' W 122°21'017.7
2015-Mar-12 19:33N 47°34' W 122°21'6 5.9
2015-Mar-12 18:34N 47°38' W 122°26'016.9
2015-Mar-12 18:33N 47°38' W 122°26'2 2.0
2015-Mar-12 17:33N 47°40' W 122°24'0 0.0
2015-Mar-12 17:33N 47°40' W 122°24'3 3.2
2015-Mar-12 16:33N 47°38' W 122°20'1 1.1
2015-Mar-12 15:52N 47°39' W 122°20'0 0.0
2015-Mar-12 15:33N 47°39' W 122°20'0 0.0
2015-Mar-12 15:32N 47°39' W 122°20'0 0.0
2015-Mar-11 22:52N 47°39' W 122°20'0 0.0
2015-Mar-11 07:05N 47°39' W 122°20'0 0.0
2015-Mar-11 07:04N 47°39' W 122°20'2 3.7
2015-Mar-11 06:33N 47°40' W 122°23'0 5.0
2015-Mar-11 06:29N 47°40' W 122°23'1 1.8
2015-Mar-11 06:09N 47°40' W 122°24'0 0.5
2015-Mar-11 05:33N 47°40' W 122°24'  
Track history (hours):
 
Tides and Currents Weather Stations Pressure Air Temp Water Temp Dewpoint Dewpoint Depression Visibility Wind Speed Wind Dir Waves Ship Positions

Mudcat

Owner: TAURUS MARINE, SAN FRANCISCO, CA. More information available from US FCC via Universal Licensing System and Coast Guard Vessel Documentation Center.

Last reported at 2015-Mar-20 18:12 UTC. Time now 2015-Mar-28 12:15 UTC.
Position N 47°39' W 122°20'.

Length 22 m; draft 2 m.

Type: Tug. MMSI: 366969750.

Date/timePositionNaut miles runAvg speedWind from/ knotsBaromVisibWave heightAir tempDewpointWater temp
2015-Mar-20 18:12N 47°39' W 122°20'0 0.0
2015-Mar-20 18:09N 47°39' W 122°20'2 3.3
2015-Mar-20 17:33N 47°40' W 122°23'0 4.4
2015-Mar-20 17:29N 47°40' W 122°23'0 0.4
2015-Mar-20 16:34N 47°40' W 122°24'0 0.0
2015-Mar-20 16:33N 47°40' W 122°24'3 2.7
2015-Mar-20 15:33N 47°37' W 122°24'1 7.9
2015-Mar-20 15:29N 47°37' W 122°23'3 3.2
2015-Mar-20 14:33N 47°34' W 122°21'0 0.0
2015-Mar-20 14:29N 47°34' W 122°21'  
2015-Mar-12 21:32N 47°34' W 122°21'0 0.0
2015-Mar-12 21:29N 47°34' W 122°21'3 3.7
2015-Mar-12 20:32N 47°31' W 122°18'0 0.2
2015-Mar-12 20:18N 47°31' W 122°18'3 3.8
2015-Mar-12 19:34N 47°34' W 122°21'017.7
2015-Mar-12 19:33N 47°34' W 122°21'6 5.9
2015-Mar-12 18:34N 47°38' W 122°26'016.9
2015-Mar-12 18:33N 47°38' W 122°26'2 2.0
2015-Mar-12 17:33N 47°40' W 122°24'0 0.0
2015-Mar-12 17:33N 47°40' W 122°24'3 3.2
2015-Mar-12 16:33N 47°38' W 122°20'1 1.1
2015-Mar-12 15:52N 47°39' W 122°20'0 0.0
2015-Mar-12 15:33N 47°39' W 122°20'0 0.0
2015-Mar-12 15:32N 47°39' W 122°20'0 0.0
2015-Mar-11 22:52N 47°39' W 122°20'0 0.0
2015-Mar-11 07:05N 47°39' W 122°20'0 0.0
2015-Mar-11 07:04N 47°39' W 122°20'2 3.7
2015-Mar-11 06:33N 47°40' W 122°23'0 5.0
2015-Mar-11 06:29N 47°40' W 122°23'1 1.8
2015-Mar-11 06:09N 47°40' W 122°24'0 0.5
2015-Mar-11 05:33N 47°40' W 122°24'  

Dump ship's entire track history